Time;durP1;ratioP1;P1;durP2;ratioP2;P2;SDS_P1;SDS_P2;PMS_P1;PMS_P2;Temp;Humidity;BMP_temperature;BMP_pressure;BME280_temperature;BME280_humidity;BME280_pressure;Samples;Min_cycle;Max_cycle;Signal;HPM_P1;HPM_P2
2022/08/05 00:00:02;;;;;;;;;7.25;3.00;;;;;21.94;55.25;100748.63;5083172;27;57751;-46
2022/08/05 00:02:27;;;;;;;;;4.00;4.00;;;;;21.80;55.29;100771.78;5056921;28;45318;-46
2022/08/05 00:04:53;;;;;;;;;5.25;3.00;;;;;21.73;54.91;100812.31;5074993;28;49545;-46
2022/08/05 00:07:18;;;;;;;;;5.75;4.00;;;;;21.69;56.45;100917.38;5077552;27;45247;-46
2022/08/05 00:09:44;;;;;;;;;5.00;3.25;;;;;21.73;55.07;100933.03;5074709;27;54878;-48
2022/08/05 00:12:09;;;;;;;;;5.25;4.00;;;;;21.68;55.22;100924.50;5068607;27;45327;-47
2022/08/05 00:14:35;;;;;;;;;4.00;3.25;;;;;21.60;55.37;100969.47;5068101;28;57318;-44
2022/08/05 00:17:00;;;;;;;;;3.00;2.75;;;;;21.52;57.00;101047.22;5076602;28;45610;-44
2022/08/05 00:19:25;;;;;;;;;6.25;3.00;;;;;21.44;55.75;101030.88;5065478;27;60412;-42
2022/08/05 00:21:51;;;;;;;;;8.00;5.25;;;;;21.38;56.49;101048.13;5065276;28;45248;-43
2022/08/05 00:24:16;;;;;;;;;4.00;3.00;;;;;21.35;56.35;101024.38;5069307;27;45236;-48
2022/08/05 00:26:42;;;;;;;;;3.75;3.00;;;;;21.36;56.54;101041.22;5064995;28;71745;-42
2022/08/05 00:29:07;;;;;;;;;3.00;3.00;;;;;21.29;57.38;101071.88;5067783;27;57666;-43
2022/08/05 00:31:32;;;;;;;;;5.50;4.50;;;;;21.23;57.83;101044.72;5073271;28;45544;-44
2022/08/05 00:33:58;;;;;;;;;7.00;6.50;;;;;21.16;57.61;100994.63;5070681;27;46138;-41
2022/08/05 00:36:23;;;;;;;;;5.75;5.25;;;;;21.15;57.31;100934.41;5070056;27;71845;-43
2022/08/05 00:38:50;;;;;;;;;8.25;6.00;;;;;21.14;57.28;100952.19;5079468;27;45285;-41
2022/08/05 00:41:26;;;;;;;;;5.00;3.00;;;;;21.12;57.52;101028.59;5072189;28;45471;-41
2022/08/05 00:43:51;;;;;;;;;7.25;4.75;;;;;21.09;57.73;101071.38;5073443;28;45457;-43
2022/08/05 00:46:16;;;;;;;;;4.00;4.00;;;;;21.04;57.86;101110.75;5085936;27;67087;-44
2022/08/05 00:48:42;;;;;;;;;5.25;5.00;;;;;21.02;58.03;101052.31;5072595;27;54264;-42
2022/08/05 00:51:07;;;;;;;;;4.00;4.00;;;;;21.03;58.42;101003.47;5064864;27;73297;-42
2022/08/05 00:53:32;;;;;;;;;6.25;4.00;;;;;21.02;57.74;100980.47;5071625;27;68020;-41
2022/08/05 00:55:58;;;;;;;;;5.00;4.00;;;;;20.99;58.14;100999.28;5070579;27;70777;-41
2022/08/05 00:58:23;;;;;;;;;5.50;3.75;;;;;20.97;57.63;100971.94;5078337;27;58232;-43
2022/08/05 01:00:48;;;;;;;;;3.50;3.00;;;;;20.95;57.70;100978.31;5075414;28;45302;-42
2022/08/05 01:03:14;;;;;;;;;4.00;3.00;;;;;20.92;57.47;101075.13;5060043;27;66199;-41
2022/08/05 01:05:39;;;;;;;;;4.00;2.75;;;;;20.87;57.88;101058.63;5064267;28;45681;-42
2022/08/05 01:08:04;;;;;;;;;3.00;2.75;;;;;20.85;57.78;101081.81;5075348;27;45504;-43
2022/08/05 01:10:47;;;;;;;;;6.00;2.75;;;;;20.83;57.71;101022.53;5077658;27;45175;-43
2022/08/05 01:13:24;;;;;;;;;4.50;3.00;;;;;20.84;58.93;100925.81;5058974;28;45522;-41
2022/08/05 01:15:55;;;;;;;;;4.00;4.00;;;;;20.92;57.78;100958.09;5069979;27;45724;-41
2022/08/05 01:18:32;;;;;;;;;4.00;3.00;;;;;20.90;57.92;101049.59;5074227;28;45346;-41
2022/08/05 01:21:05;;;;;;;;;6.00;4.00;;;;;20.82;58.66;101021.69;5079233;27;45444;-41
2022/08/05 01:23:40;;;;;;;;;4.00;2.50;;;;;20.77;58.73;101033.56;5076062;28;45392;-44
2022/08/05 01:26:36;;;;;;;;;5.00;4.25;;;;;20.67;58.33;101063.44;5060273;28;45314;-43
2022/08/05 01:29:07;;;;;;;;;7.25;5.00;;;;;20.60;58.41;101051.44;5071100;28;45320;-41
2022/08/05 01:31:41;;;;;;;;;4.00;3.00;;;;;20.60;58.60;101006.25;5074868;27;46222;-43
2022/08/05 01:34:13;;;;;;;;;4.75;3.25;;;;;20.55;58.42;100988.88;5080147;27;45319;-47
2022/08/05 01:36:42;;;;;;;;;4.00;3.00;;;;;20.48;58.49;100985.75;5072964;27;45706;-45
2022/08/05 01:39:09;;;;;;;;;3.25;3.25;;;;;20.44;58.33;100963.84;5063851;27;45394;-47
2022/08/05 01:41:36;;;;;;;;;4.50;2.50;;;;;20.37;58.31;100930.63;5079101;27;45445;-46
2022/08/05 01:44:02;;;;;;;;;5.25;1.75;;;;;20.35;58.42;100913.94;5078609;28;47054;-51
2022/08/05 01:46:29;;;;;;;;;0.00;0.00;;;;;20.34;58.67;100909.56;5078969;28;45603;-48
2022/08/05 01:48:55;;;;;;;;;4.00;3.25;;;;;20.34;57.77;100954.75;5073237;28;45442;-48
2022/08/05 01:51:22;;;;;;;;;4.00;2.75;;;;;20.31;58.86;100973.56;5080934;27;71530;-46
2022/08/05 01:53:50;;;;;;;;;5.00;3.00;;;;;20.30;58.09;100969.19;5096471;27;68017;-45
2022/08/05 01:56:16;;;;;;;;;6.50;3.00;;;;;20.26;58.38;100976.53;5073193;28;45285;-44
2022/08/05 01:58:43;;;;;;;;;4.50;4.00;;;;;20.23;58.24;100968.72;5073812;27;45344;-44
2022/08/05 02:01:11;;;;;;;;;2.00;2.00;;;;;20.24;58.09;100970.44;5077159;27;45485;-45
2022/08/05 02:03:42;;;;;;;;;2.75;2.00;;;;;20.22;58.03;100937.81;5070863;28;46415;-48
2022/08/05 02:06:08;;;;;;;;;3.50;2.00;;;;;20.22;57.71;100936.94;5077430;27;45293;-47
2022/08/05 02:08:34;;;;;;;;;5.00;3.75;;;;;20.21;57.87;100954.69;5073309;27;52077;-46
2022/08/05 02:11:08;;;;;;;;;2.25;2.25;;;;;20.22;57.96;100964.38;5080200;27;45454;-50
2022/08/05 02:13:41;;;;;;;;;5.75;4.00;;;;;20.24;57.97;100965.13;5077801;27;46874;-49
2022/08/05 02:16:15;;;;;;;;;8.25;3.50;;;;;20.24;58.16;100994.38;5071858;28;45493;-46
2022/08/05 02:18:48;;;;;;;;;9.00;3.00;;;;;20.23;58.18;100984.69;5078351;27;45365;-45
2022/08/05 02:21:20;;;;;;;;;4.50;3.00;;;;;20.26;58.15;100983.66;5073780;28;45296;-44
2022/08/05 02:23:49;;;;;;;;;3.00;3.00;;;;;20.23;58.05;100974.03;5072075;27;45350;-42
2022/08/05 02:26:19;;;;;;;;;5.75;2.75;;;;;20.21;58.31;100980.44;5078866;27;45495;-42
2022/08/05 02:28:45;;;;;;;;;3.00;3.00;;;;;20.18;58.25;100996.56;5073835;27;45235;-44
2022/08/05 02:31:17;;;;;;;;;4.00;2.25;;;;;20.12;58.28;100994.31;5088450;27;72114;-46
2022/08/05 02:33:49;;;;;;;;;5.00;3.25;;;;;20.07;58.62;101013.19;5067681;28;45470;-42
2022/08/05 02:36:17;;;;;;;;;3.25;2.25;;;;;20.07;58.26;101003.41;5093950;27;45371;-47
2022/08/05 02:38:47;;;;;;;;;3.00;3.00;;;;;20.03;58.41;101007.19;5068142;28;45370;-51
2022/08/05 02:41:14;;;;;;;;;1.50;1.00;;;;;20.04;58.55;101034.63;5080723;27;45191;-41
2022/08/05 02:43:41;;;;;;;;;4.25;3.00;;;;;20.00;58.77;101015.34;5077884;28;45468;-45
2022/08/05 02:46:06;;;;;;;;;5.00;3.00;;;;;20.04;59.19;101008.03;5078180;28;46081;-47
2022/08/05 02:48:32;;;;;;;;;7.50;4.50;;;;;20.04;59.27;101002.72;5075313;27;45409;-45
2022/08/05 02:50:59;;;;;;;;;4.50;4.00;;;;;20.03;59.29;100953.22;5083703;27;70427;-45
2022/08/05 02:53:26;;;;;;;;;4.00;4.00;;;;;20.01;58.97;100920.56;5080098;28;46424;-43
2022/08/05 02:55:52;;;;;;;;;4.25;3.00;;;;;20.01;59.00;100925.88;5098216;27;45320;-45
2022/08/05 02:58:20;;;;;;;;;3.75;3.75;;;;;19.99;58.93;100925.13;5087957;27;45192;-43
2022/08/05 03:00:45;;;;;;;;;3.00;2.75;;;;;19.96;59.08;100926.19;5093532;27;45295;-46
2022/08/05 03:03:15;;;;;;;;;6.00;4.00;;;;;19.96;59.20;100938.63;5073714;27;56908;-46
2022/08/05 03:05:41;;;;;;;;;2.00;2.00;;;;;19.95;58.95;100955.50;5075906;27;45744;-46
2022/08/05 03:08:08;;;;;;;;;5.00;3.25;;;;;19.90;59.10;100980.56;5071618;28;45397;-42
2022/08/05 03:10:34;;;;;;;;;3.25;2.00;;;;;19.87;58.96;100994.03;5060239;28;45884;-44
2022/08/05 03:12:59;;;;;;;;;3.00;3.00;;;;;19.86;58.97;101004.72;5075640;27;74625;-42
2022/08/05 03:15:24;;;;;;;;;2.50;2.00;;;;;19.87;58.71;101007.31;5073714;27;69372;-42
2022/08/05 03:17:54;;;;;;;;;3.00;2.00;;;;;19.87;58.86;101003.81;5076915;28;45425;-42
2022/08/05 03:20:19;;;;;;;;;4.00;2.75;;;;;19.85;58.60;101001.22;5078977;27;45377;-41
2022/08/05 03:22:44;;;;;;;;;4.50;3.00;;;;;19.88;58.48;100968.31;5075934;27;68807;-42
2022/08/05 03:25:10;;;;;;;;;3.75;2.00;;;;;19.87;58.61;100967.47;5077634;27;49424;-42
2022/08/05 03:27:36;;;;;;;;;5.00;3.00;;;;;19.86;58.64;100963.09;5071997;27;59679;-43
2022/08/05 03:30:01;;;;;;;;;3.75;3.50;;;;;19.86;58.56;100967.56;5074281;27;45332;-41
2022/08/05 03:32:26;;;;;;;;;3.00;3.00;;;;;19.84;58.25;100983.56;5076036;27;46178;-43
2022/08/05 03:34:52;;;;;;;;;4.25;2.00;;;;;19.88;58.56;100997.53;5068396;27;61600;-45
2022/08/05 03:37:19;;;;;;;;;4.25;2.75;;;;;19.88;58.20;100979.81;5076150;28;55097;-42
2022/08/05 03:39:56;;;;;;;;;3.25;3.25;;;;;19.89;58.24;100973.53;5070241;28;45433;-43
2022/08/05 03:42:21;;;;;;;;;4.25;2.00;;;;;19.90;58.50;100983.22;5069194;28;46972;-41
2022/08/05 03:44:47;;;;;;;;;2.00;2.00;;;;;19.91;58.38;100998.19;5075115;27;45414;-44
2022/08/05 03:47:12;;;;;;;;;5.00;3.00;;;;;19.92;58.26;101010.53;5075351;27;60143;-44
2022/08/05 03:49:37;;;;;;;;;3.00;2.25;;;;;19.94;58.15;101004.25;5076163;27;63558;-42
2022/08/05 03:52:05;;;;;;;;;2.00;2.00;;;;;19.93;58.16;101006.06;5072096;27;67926;-43
2022/08/05 03:54:34;;;;;;;;;4.75;3.00;;;;;19.94;57.97;100998.94;5071364;27;45395;-41
2022/08/05 03:57:02;;;;;;;;;3.00;3.00;;;;;19.91;57.61;101003.50;5068689;27;45331;-47
2022/08/05 03:59:33;;;;;;;;;3.75;3.00;;;;;19.89;58.06;101007.22;5081569;27;45364;-41
2022/08/05 04:02:00;;;;;;;;;5.25;3.25;;;;;19.88;58.12;101003.72;5056844;28;45702;-41
2022/08/05 04:04:26;;;;;;;;;5.75;3.25;;;;;19.89;57.71;101002.75;5074450;27;62874;-43
2022/08/05 04:06:52;;;;;;;;;3.50;2.75;;;;;19.90;57.75;100998.28;5074793;27;45477;-42
2022/08/05 04:09:17;;;;;;;;;2.75;1.00;;;;;19.89;57.77;100994.78;5072875;28;64712;-43
2022/08/05 04:11:43;;;;;;;;;4.00;4.00;;;;;19.87;57.54;100987.88;5066430;27;46565;-41
2022/08/05 04:14:09;;;;;;;;;3.75;2.25;;;;;19.88;57.71;100984.25;5064185;28;66968;-40
2022/08/05 04:16:34;;;;;;;;;2.25;2.00;;;;;19.88;57.38;100989.56;5066813;27;64768;-41
2022/08/05 04:19:00;;;;;;;;;3.50;3.50;;;;;19.89;57.40;100983.31;5078448;28;45230;-46
2022/08/05 04:21:26;;;;;;;;;3.00;3.00;;;;;19.89;57.45;100999.25;5074760;27;46197;-46
2022/08/05 04:23:52;;;;;;;;;5.50;3.75;;;;;19.88;57.46;101001.06;5082658;27;45349;-46
2022/08/05 04:26:17;;;;;;;;;2.75;2.75;;;;;19.88;57.44;100994.88;5075791;27;45734;-45
2022/08/05 04:28:42;;;;;;;;;4.00;3.00;;;;;19.90;57.51;101003.59;5070843;27;45308;-46
2022/08/05 04:31:08;;;;;;;;;3.00;3.00;;;;;19.90;57.14;100995.63;5077639;27;58832;-47
2022/08/05 04:33:33;;;;;;;;;5.75;4.00;;;;;19.89;57.35;100991.28;5069330;28;65771;-45
2022/08/05 04:35:58;;;;;;;;;4.00;3.00;;;;;19.92;57.27;100989.28;5075294;27;67044;-46
2022/08/05 04:38:24;;;;;;;;;5.00;3.00;;;;;19.94;57.23;100980.34;5073956;27;51670;-45
2022/08/05 04:40:49;;;;;;;;;3.00;3.00;;;;;19.93;57.85;100984.81;5071212;27;71218;-46
2022/08/05 04:43:15;;;;;;;;;5.25;2.75;;;;;19.91;57.61;100992.88;5077973;28;45433;-48
2022/08/05 04:45:40;;;;;;;;;3.50;2.50;;;;;19.90;57.61;101000.94;5071415;28;53344;-46
2022/08/05 04:48:11;;;;;;;;;3.00;3.00;;;;;19.92;57.53;101004.38;5078320;27;69609;-45
2022/08/05 04:50:41;;;;;;;;;6.25;3.00;;;;;19.90;57.79;101011.56;5097011;27;46868;-46
2022/08/05 04:53:09;;;;;;;;;4.00;4.00;;;;;19.90;57.22;101006.25;5075153;27;45398;-52
2022/08/05 04:55:36;;;;;;;;;7.00;4.00;;;;;19.90;57.31;101003.59;5075065;28;45165;-44
2022/08/05 04:58:02;;;;;;;;;2.00;2.00;;;;;19.89;57.47;101008.06;5068723;28;45266;-48
2022/08/05 05:00:27;;;;;;;;;4.00;4.00;;;;;19.91;57.58;101015.94;5076617;27;45426;-48
2022/08/05 05:02:52;;;;;;;;;4.00;3.00;;;;;19.90;57.61;101011.56;5071046;28;45233;-44
2022/08/05 05:05:18;;;;;;;;;4.25;3.00;;;;;19.92;57.28;101010.53;5074943;27;54654;-49
2022/08/05 05:07:43;;;;;;;;;3.50;2.75;;;;;19.95;57.27;101017.44;5075074;27;68666;-45
2022/08/05 05:10:08;;;;;;;;;3.00;3.00;;;;;19.95;56.92;101020.09;5075870;27;53340;-44
2022/08/05 05:12:34;;;;;;;;;4.00;3.00;;;;;19.94;57.31;101021.06;5076501;27;45326;-45
2022/08/05 05:14:59;;;;;;;;;4.00;4.00;;;;;19.91;57.01;101027.41;5081039;27;45503;-48
2022/08/05 05:17:24;;;;;;;;;5.50;4.75;;;;;19.88;57.06;101034.72;5075889;27;65884;-45
2022/08/05 05:19:56;;;;;;;;;2.50;2.50;;;;;19.85;57.34;101032.25;5070804;28;46162;-43
2022/08/05 05:22:22;;;;;;;;;5.50;4.00;;;;;19.84;57.15;101033.19;5074615;27;45417;-45
2022/08/05 05:24:47;;;;;;;;;4.75;4.00;;;;;19.80;57.03;101034.34;5077600;27;45424;-45
2022/08/05 05:27:12;;;;;;;;;5.25;3.50;;;;;19.86;58.17;101040.09;5073816;28;66695;-45
2022/08/05 05:29:37;;;;;;;;;6.00;4.00;;;;;20.00;57.50;101052.53;5074781;27;70819;-42
2022/08/05 05:32:03;;;;;;;;;4.75;3.00;;;;;20.14;57.06;101057.00;5070351;27;59794;-43
2022/08/05 05:34:29;;;;;;;;;4.00;4.00;;;;;20.17;57.30;101055.94;5074420;28;45462;-44
2022/08/05 05:36:54;;;;;;;;;4.50;3.75;;;;;20.18;57.89;101063.84;5076946;28;45444;-47
2022/08/05 05:39:19;;;;;;;;;4.00;3.50;;;;;20.28;57.24;101064.13;5079020;27;70415;-47
2022/08/05 05:41:45;;;;;;;;;4.50;4.00;;;;;20.48;57.24;101069.03;5081277;27;45393;-48
2022/08/05 05:44:10;;;;;;;;;4.25;3.00;;;;;20.67;56.70;101070.56;5081123;27;62208;-46
2022/08/05 05:46:35;;;;;;;;;6.00;3.75;;;;;20.73;55.98;101074.63;5073305;27;45424;-47
2022/08/05 05:49:01;;;;;;;;;4.00;2.75;;;;;20.70;56.16;101077.47;5078763;27;74237;-48
2022/08/05 05:51:26;;;;;;;;;3.00;3.00;;;;;20.64;56.52;101078.72;5071775;28;45386;-49
2022/08/05 05:53:53;;;;;;;;;8.25;3.00;;;;;20.72;56.50;101083.56;5079832;27;62976;-48
2022/08/05 05:56:19;;;;;;;;;3.75;3.50;;;;;20.80;56.05;101087.41;5080864;27;45224;-49
2022/08/05 05:58:46;;;;;;;;;2.50;2.50;;;;;20.85;55.55;101084.47;5078507;27;46243;-50
2022/08/05 06:01:12;;;;;;;;;9.00;3.00;;;;;20.79;55.33;101087.56;5074601;27;45390;-48
2022/08/05 06:03:38;;;;;;;;;5.00;3.00;;;;;20.69;55.90;101091.75;5067392;28;45413;-48
2022/08/05 06:06:05;;;;;;;;;5.25;3.00;;;;;20.62;55.55;101093.94;5066137;28;64502;-43
2022/08/05 06:08:31;;;;;;;;;4.50;3.25;;;;;20.47;56.05;101093.94;5076286;27;47726;-52
2022/08/05 06:10:56;;;;;;;;;5.00;4.75;;;;;20.41;55.80;101104.06;5072826;27;45314;-48
2022/08/05 06:13:22;;;;;;;;;6.00;4.25;;;;;20.37;56.13;101105.22;5078695;27;45356;-51
2022/08/05 06:15:47;;;;;;;;;4.75;4.75;;;;;20.37;56.58;101108.72;5079411;28;58821;-52
2022/08/05 06:18:12;;;;;;;;;5.00;5.00;;;;;20.36;56.56;101116.81;5068741;27;46480;-53
2022/08/05 06:20:38;;;;;;;;;5.25;4.50;;;;;20.34;56.81;101113.38;5058315;28;45387;-50
2022/08/05 06:23:03;;;;;;;;;5.25;5.25;;;;;20.32;56.59;101116.13;5071524;27;63534;-53
2022/08/05 06:25:28;;;;;;;;;6.25;5.50;;;;;20.32;56.40;101118.78;5070960;27;65333;-52
2022/08/05 06:27:54;;;;;;;;;6.00;4.00;;;;;20.34;56.65;101113.38;5080994;27;50488;-53
2022/08/05 06:30:19;;;;;;;;;5.00;5.00;;;;;20.35;56.48;101123.09;5079346;27;66924;-54
2022/08/05 06:32:45;;;;;;;;;6.25;5.00;;;;;20.34;56.80;101122.22;5064016;27;45176;-50
2022/08/05 06:35:10;;;;;;;;;6.00;3.75;;;;;20.35;56.17;101112.44;5064995;28;45692;-53
2022/08/05 06:37:35;;;;;;;;;4.25;3.75;;;;;20.38;56.69;101115.78;5065001;27;46421;-50
2022/08/05 06:40:01;;;;;;;;;6.25;4.25;;;;;20.39;56.39;101108.66;5080489;27;72394;-48
2022/08/05 06:42:26;;;;;;;;;5.75;5.50;;;;;20.44;55.90;101111.88;5080480;27;61745;-49
2022/08/05 06:44:51;;;;;;;;;5.75;4.50;;;;;20.41;55.99;101118.22;5078805;27;71798;-50
2022/08/05 06:47:17;;;;;;;;;5.75;5.25;;;;;20.44;56.17;101119.84;5079770;27;68513;-48
2022/08/05 06:49:42;;;;;;;;;4.50;4.00;;;;;20.46;56.08;101120.59;5079943;28;45361;-50
2022/08/05 06:52:07;;;;;;;;;6.00;4.75;;;;;20.47;56.16;101117.84;5077204;27;45145;-48
2022/08/05 06:54:33;;;;;;;;;5.25;5.00;;;;;20.49;56.38;101118.59;5079622;27;53579;-49
2022/08/05 06:56:58;;;;;;;;;8.75;5.00;;;;;20.53;56.53;101123.75;5078620;27;46200;-49
2022/08/05 06:59:23;;;;;;;;;5.50;5.00;;;;;20.55;55.72;101124.50;5077874;27;65366;-50
2022/08/05 07:01:48;;;;;;;;;7.25;5.00;;;;;20.58;56.20;101129.63;5075431;27;63188;-52
2022/08/05 07:04:14;;;;;;;;;5.00;4.25;;;;;20.59;56.12;101121.56;5080600;27;59484;-50
2022/08/05 07:06:39;;;;;;;;;4.25;4.25;;;;;20.62;55.79;101125.84;5078187;27;46264;-50
2022/08/05 07:09:05;;;;;;;;;5.50;4.00;;;;;20.65;55.85;101136.28;5077731;27;69701;-52
2022/08/05 07:11:32;;;;;;;;;4.00;4.00;;;;;20.69;55.88;101135.16;5077149;27;45464;-51
2022/08/05 07:16:50;;;;;;;;;7.50;6.75;;;;;20.77;55.90;101143.50;5065848;28;45661;-52
2022/08/05 07:19:20;;;;;;;;;7.00;6.50;;;;;20.79;55.97;101144.25;5077490;27;45349;-50
2022/08/05 07:21:47;;;;;;;;;7.25;4.00;;;;;20.84;55.99;101141.28;5077265;28;45323;-50
2022/08/05 07:24:13;;;;;;;;;8.50;5.25;;;;;20.88;55.81;101145.47;5076308;27;45463;-51
2022/08/05 07:26:39;;;;;;;;;9.25;7.00;;;;;20.91;55.74;101144.41;5070651;27;46018;-49
2022/08/05 07:29:05;;;;;;;;;5.50;4.00;;;;;20.93;55.83;101154.03;5079371;27;45868;-52
2022/08/05 07:31:31;;;;;;;;;8.00;6.00;;;;;20.97;55.76;101152.00;5078900;27;45439;-51
2022/08/05 07:33:56;;;;;;;;;8.75;6.00;;;;;20.99;55.42;101158.09;5080482;27;45326;-50
2022/08/05 07:36:21;;;;;;;;;12.00;7.75;;;;;21.00;55.41;101160.66;5066082;27;46446;-51
2022/08/05 07:38:47;;;;;;;;;9.00;7.00;;;;;21.04;55.62;101159.50;5080319;27;45240;-51
2022/08/05 07:41:18;;;;;;;;;9.25;7.00;;;;;21.09;55.05;101163.66;5090730;27;45528;-52
2022/08/05 07:43:43;;;;;;;;;6.25;6.25;;;;;21.13;54.87;101168.69;5070769;27;45308;-50
2022/08/05 07:46:08;;;;;;;;;7.00;5.75;;;;;21.19;54.67;101170.09;5063604;27;70819;-50
2022/08/05 07:48:34;;;;;;;;;8.75;6.00;;;;;21.24;55.05;101173.31;5094908;27;45773;-54
2022/08/05 07:50:59;;;;;;;;;9.75;6.75;;;;;21.30;55.23;101175.59;5079970;27;45468;-53
2022/08/05 07:53:25;;;;;;;;;8.25;6.75;;;;;21.36;54.85;101177.84;5079365;27;67726;-50
2022/08/05 07:55:50;;;;;;;;;6.00;5.00;;;;;21.43;54.42;101184.47;5092765;27;47883;-51
2022/08/05 07:58:16;;;;;;;;;9.75;7.00;;;;;21.48;54.43;101181.56;5078736;27;45416;-49
2022/08/05 08:00:41;;;;;;;;;7.25;6.25;;;;;21.54;54.15;101183.81;5075897;27;45380;-48
2022/08/05 08:03:11;;;;;;;;;10.00;7.00;;;;;21.60;54.43;101190.53;5066155;28;44718;-53
2022/08/05 08:05:37;;;;;;;;;5.00;4.00;;;;;21.61;54.14;101193.09;5077763;27;46178;-49
2022/08/05 08:08:02;;;;;;;;;7.50;7.00;;;;;21.68;54.10;101192.69;5080141;27;45236;-48
2022/08/05 08:10:28;;;;;;;;;7.75;6.75;;;;;21.74;54.04;101202.94;5061605;27;45435;-53
2022/08/05 08:12:54;;;;;;;;;7.75;6.00;;;;;21.78;53.89;101199.97;5059716;28;45296;-50
2022/08/05 08:15:20;;;;;;;;;6.50;6.00;;;;;21.85;53.61;101200.41;5064429;28;45388;-48
2022/08/05 08:17:45;;;;;;;;;8.25;6.00;;;;;21.90;53.38;101213.41;5079723;27;45322;-54
2022/08/05 08:20:11;;;;;;;;;6.00;6.00;;;;;21.96;53.29;101224.53;5077383;27;45546;-51
2022/08/05 08:22:37;;;;;;;;;7.25;6.00;;;;;22.01;53.21;101218.91;5078626;27;45300;-53
2022/08/05 08:25:03;;;;;;;;;9.75;7.50;;;;;22.03;53.03;101214.31;5075642;27;45856;-53
2022/08/05 08:27:31;;;;;;;;;9.75;7.00;;;;;22.08;53.26;101205.97;5078455;28;45764;-50
2022/08/05 08:29:57;;;;;;;;;9.50;6.75;;;;;22.14;53.41;101210.91;5075735;27;45249;-54
2022/08/05 08:32:22;;;;;;;;;10.00;7.25;;;;;22.18;51.94;101221.25;5060182;28;45375;-51
2022/08/05 08:34:48;;;;;;;;;7.75;6.00;;;;;22.23;52.64;101222.75;5074744;28;46307;-48
2022/08/05 08:37:16;;;;;;;;;6.75;4.50;;;;;22.26;52.07;101226.06;5070099;28;45426;-52
2022/08/05 08:39:41;;;;;;;;;8.50;6.00;;;;;22.31;52.00;101228.44;5064201;27;45371;-53
2022/08/05 08:42:08;;;;;;;;;6.50;5.75;;;;;22.36;52.21;101229.84;5059505;28;45390;-53
2022/08/05 08:44:35;;;;;;;;;8.00;5.75;;;;;22.44;51.24;101233.81;5086006;27;47075;-51
2022/08/05 08:47:02;;;;;;;;;4.50;4.50;;;;;22.48;50.75;101227.28;5068379;27;45248;-51
2022/08/05 08:49:30;;;;;;;;;6.00;5.50;;;;;22.51;51.26;101235.94;5063079;28;45328;-53
2022/08/05 08:52:01;;;;;;;;;8.75;5.75;;;;;22.54;51.58;101235.72;5069446;27;45374;-56
2022/08/05 08:54:26;;;;;;;;;10.25;7.00;;;;;22.58;51.25;101239.03;5078810;28;46149;-53
2022/08/05 08:56:52;;;;;;;;;6.50;5.00;;;;;22.64;50.92;101243.91;5075817;27;45307;-54
2022/08/05 08:59:21;;;;;;;;;6.25;6.25;;;;;22.72;51.06;101249.59;5094310;27;45383;-53
2022/08/05 09:01:47;;;;;;;;;9.75;5.00;;;;;22.77;50.95;101248.41;5077910;27;45496;-52
2022/08/05 09:04:12;;;;;;;;;10.25;7.75;;;;;22.82;50.96;101251.59;5075828;28;46423;-50
2022/08/05 09:06:38;;;;;;;;;7.00;6.25;;;;;22.91;50.73;101258.94;5077112;28;45358;-52
2022/08/05 09:09:03;;;;;;;;;7.25;7.00;;;;;22.98;50.62;101249.53;5059723;28;45316;-51
2022/08/05 09:11:31;;;;;;;;;6.00;5.00;;;;;23.06;50.31;101252.56;5062183;27;45463;-53
2022/08/05 09:13:57;;;;;;;;;6.50;5.00;;;;;23.12;49.98;101260.16;5077261;27;45379;-51
2022/08/05 09:16:22;;;;;;;;;5.50;5.25;;;;;23.20;49.31;101262.25;5076556;27;45300;-52
2022/08/05 09:18:48;;;;;;;;;8.00;8.00;;;;;23.26;49.56;101256.47;5074793;28;45313;-51
2022/08/05 09:21:13;;;;;;;;;7.00;5.25;;;;;23.34;48.63;101260.38;5077412;28;65828;-49
2022/08/05 09:23:38;;;;;;;;;3.75;3.25;;;;;23.46;48.81;101262.16;5075715;27;45351;-51
2022/08/05 09:26:10;;;;;;;;;6.00;6.00;;;;;23.57;48.48;101254.25;5067926;27;45300;-53
2022/08/05 09:28:37;;;;;;;;;5.50;4.00;;;;;23.75;46.78;101256.53;5071803;28;45366;-51
2022/08/05 09:31:05;;;;;;;;;9.00;4.00;;;;;23.94;46.53;101256.88;5083710;27;45283;-53
2022/08/05 09:33:50;;;;;;;;;8.75;5.75;;;;;24.19;48.07;101258.53;5059982;28;46697;-53
2022/08/05 09:36:15;;;;;;;;;6.25;5.00;;;;;24.46;46.78;101262.72;5064857;28;45709;-49
2022/08/05 09:38:58;;;;;;;;;4.50;4.50;;;;;24.79;46.66;101256.59;5067978;28;45311;-48
2022/08/05 09:41:23;;;;;;;;;9.75;7.50;;;;;25.11;45.52;101261.22;5062862;27;45564;-50
2022/08/05 09:43:49;;;;;;;;;7.25;6.00;;;;;25.42;44.73;101257.91;5068598;28;46297;-48
2022/08/05 09:46:31;;;;;;;;;7.00;5.00;;;;;25.75;44.54;101262.34;5074463;28;52241;-52
2022/08/05 09:48:58;;;;;;;;;6.25;6.25;;;;;26.18;42.97;101260.59;5067157;27;45479;-49
2022/08/05 09:51:38;;;;;;;;;9.00;7.25;;;;;26.64;44.46;101265.56;5071733;27;45239;-53
2022/08/05 09:54:07;;;;;;;;;8.00;7.00;;;;;27.10;43.48;101276.78;5087209;27;46153;-52
2022/08/05 09:56:34;;;;;;;;;8.75;7.75;;;;;27.63;40.76;101259.53;5071017;27;45402;-57
2022/08/05 09:59:04;;;;;;;;;11.00;7.25;;;;;28.67;39.03;101272.38;5080498;27;45447;-52
2022/08/05 10:01:32;;;;;;;;;10.50;8.00;;;;;29.90;38.57;101260.38;5092858;27;45490;-57
2022/08/05 10:04:06;;;;;;;;;10.00;6.75;;;;;31.09;36.83;101272.50;5079880;27;45398;-52
2022/08/05 10:06:32;;;;;;;;;6.75;2.50;;;;;32.12;34.13;101274.91;5080552;27;45314;-53
2022/08/05 10:09:16;;;;;;;;;5.75;5.00;;;;;32.90;33.15;101260.75;5079252;27;45287;-58
2022/08/05 10:11:43;;;;;;;;;5.00;5.00;;;;;32.96;29.49;101271.91;5071006;28;45349;-48
2022/08/05 10:14:24;;;;;;;;;6.50;6.00;;;;;32.41;33.57;101266.25;5063928;28;46200;-50
2022/08/05 10:16:50;;;;;;;;;6.75;6.00;;;;;32.43;34.36;101256.09;5063982;28;45423;-53
2022/08/05 10:19:15;;;;;;;;;5.25;4.50;;;;;33.03;30.28;101260.16;5080239;28;45415;-54
2022/08/05 10:21:41;;;;;;;;;6.00;5.75;;;;;33.70;30.26;101261.53;5088453;27;45425;-56
2022/08/05 10:24:12;;;;;;;;;8.75;7.00;;;;;34.06;28.11;101258.16;5062959;28;46699;-52
2022/08/05 10:26:39;;;;;;;;;4.25;4.25;;;;;34.63;28.45;101266.81;5066296;27;45273;-53
2022/08/05 10:29:06;;;;;;;;;5.25;5.00;;;;;35.20;27.24;101259.81;5087231;27;45370;-54
2022/08/05 10:31:32;;;;;;;;;8.50;6.50;;;;;35.67;26.05;101266.66;5064312;28;45223;-54
2022/08/05 10:33:58;;;;;;;;;4.25;4.25;;;;;36.24;27.05;101259.44;5079735;28;45257;-52
2022/08/05 10:36:23;;;;;;;;;6.50;4.50;;;;;36.69;25.47;101257.25;5079091;27;64737;-56
2022/08/05 10:38:51;;;;;;;;;6.50;5.00;;;;;36.96;24.62;101258.22;5072144;28;45263;-57
2022/08/05 10:41:28;;;;;;;;;4.00;4.00;;;;;37.37;24.76;101267.41;5046169;28;45617;-56
2022/08/05 10:43:59;;;;;;;;;4.50;4.00;;;;;37.72;23.56;101268.13;5044518;28;45751;-56
2022/08/05 10:46:43;;;;;;;;;0.75;0.75;;;;;37.89;23.72;101278.63;5048258;28;45827;-58
2022/08/05 10:49:08;;;;;;;;;5.50;2.75;;;;;38.01;23.53;101268.75;5074298;28;45356;-56
2022/08/05 10:51:45;;;;;;;;;2.25;2.25;;;;;38.20;23.34;101260.81;5078299;27;45493;-58
2022/08/05 10:54:11;;;;;;;;;6.00;4.00;;;;;38.46;24.90;101268.97;5080799;27;46268;-58
2022/08/05 10:56:48;;;;;;;;;6.00;4.00;;;;;38.69;25.21;101271.25;5081212;27;45393;-54
2022/08/05 10:59:30;;;;;;;;;3.50;3.50;;;;;38.72;22.22;101275.44;5063042;28;45383;-57
2022/08/05 11:02:11;;;;;;;;;5.00;4.00;;;;;38.50;23.28;101278.41;5062207;28;45309;-56
2022/08/05 11:04:44;;;;;;;;;3.25;2.50;;;;;38.09;23.81;101275.91;5071401;28;47144;-55
2022/08/05 11:07:11;;;;;;;;;4.50;4.00;;;;;37.69;24.18;101282.19;5060518;28;45548;-56
2022/08/05 11:09:44;;;;;;;;;6.75;4.25;;;;;37.50;23.85;101281.06;5074337;27;45259;-55
2022/08/05 11:12:39;;;;;;;;;5.00;4.00;;;;;37.46;23.24;101284.44;5066954;27;45377;-55
2022/08/05 11:15:08;;;;;;;;;5.75;5.00;;;;;37.45;22.74;101282.75;5079006;27;46326;-56
2022/08/05 11:17:38;;;;;;;;;6.00;4.00;;;;;37.13;23.94;101288.69;5079599;27;46086;-54
2022/08/05 11:20:36;;;;;;;;;7.00;4.75;;;;;36.16;23.26;101290.38;5077135;27;45205;-55
2022/08/05 11:23:30;;;;;;;;;5.50;4.00;;;;;35.01;24.46;101289.34;5062003;28;45328;-49
2022/08/05 11:26:05;;;;;;;;;5.00;5.00;;;;;34.28;26.06;101286.38;5073887;27;45198;-51
2022/08/05 11:28:31;;;;;;;;;4.75;4.25;;;;;34.17;26.81;101292.19;5074758;27;45283;-52